메인 페이지
METAR-TAF:

METAR-TAF

공항 :

프레즈노, 캘리포니아, 미국

위도: 36-43-56N, 경도: 119-49-13W, 고도: 85m

현재 날씨관측

예보는 18분 전, 15:15시(UTC)에 발표되었습니다.
북서8kt
온도 16°C
습도 68%
기압 1016 hPa
시정: 16.1km

METAR: KFCH 241515Z AUTO 32008KT 10SM 16/10 A3000 RMK A01

시각: 08:33 (15:33 UTC)


TAF: 누락

4,000개 이상의 공항 관측 자료 및 예보 (METAR 및 TAF 보고).

지도상에서 검색 가능한 기상관측소가 노란 점과 빨간 점으로 표시되어 있습니다.

기상관측소 명을 보려면 표시 위로 마우스를 이동하세요.

날씨 관측과 예보를 보려면 클릭하세요.

지도 변경 : 확대하려면 엑스 표시가 있는 녹색 버튼, 축소하려면 빼기 표시가 있는 녹색 버튼, 다음 페이지의 지도를 보려면 녹색 화살표를 클릭하세요.


METAR-TAF: